createdAt,value
2017-08-04T18:15:30.054Z,53.8
2017-08-04T18:15:50.724Z,53.8
2017-08-04T18:16:11.368Z,53.6
2017-08-04T18:16:32.063Z,53.4
2017-08-04T18:16:52.951Z,54.1
2017-08-04T18:17:13.713Z,54.2
2017-08-04T18:17:34.364Z,54.5
2017-08-04T18:17:55.047Z,54.8
2017-08-04T18:18:15.711Z,54.6
2017-08-04T18:18:36.405Z,54.4
2017-08-04T18:18:57.040Z,54.2
2017-08-04T18:19:17.701Z,54
2017-08-04T18:19:38.372Z,54.7
2017-08-04T18:19:59.022Z,54.3
2017-08-04T18:20:19.712Z,54
2017-08-04T18:20:40.542Z,54.3
2017-08-04T18:21:02.231Z,54.6
2017-08-04T18:21:22.873Z,54.3
2017-08-04T18:21:44.560Z,53.8
2017-08-04T18:22:05.200Z,54.5
2017-08-04T18:22:25.863Z,54.8
2017-08-04T18:22:46.516Z,55
2017-08-04T18:23:07.172Z,54.8
2017-08-04T18:23:27.836Z,55.5
2017-08-04T18:23:48.492Z,54.8
2017-08-04T18:24:09.744Z,54.9
2017-08-04T18:24:30.550Z,55.5
2017-08-04T18:24:51.201Z,55
2017-08-04T18:25:11.865Z,54.5
2017-08-04T18:25:32.536Z,54.9
2017-08-04T18:25:53.180Z,54.5
2017-08-04T18:26:13.983Z,54.3
2017-08-04T18:26:34.706Z,54.5
2017-08-04T18:26:55.537Z,55.6
2017-08-04T18:27:16.595Z,54.5
2017-08-04T18:27:37.257Z,54.4
2017-08-04T18:27:57.951Z,54.6
2017-08-04T18:28:18.684Z,55.3
2017-08-04T18:28:39.328Z,54.6
2017-08-04T18:28:59.965Z,54.5
2017-08-04T18:29:20.606Z,54.6
2017-08-04T18:29:41.306Z,55.1
2017-08-04T18:30:01.994Z,55
2017-08-04T18:30:22.652Z,55.6
2017-08-04T18:30:43.330Z,55.3
2017-08-04T18:31:03.987Z,55.5
2017-08-04T18:31:24.630Z,54.8
2017-08-04T18:31:45.289Z,55.3
2017-08-04T18:32:05.977Z,55.9
2017-08-04T18:32:26.642Z,55.8
2017-08-04T18:32:47.443Z,55.1
2017-08-04T18:33:08.091Z,55
2017-08-04T18:33:28.769Z,54.9
2017-08-04T18:33:49.516Z,54.7
2017-08-04T18:34:10.171Z,55.2
2017-08-04T18:34:30.833Z,55.5
2017-08-04T18:34:51.479Z,56.7
2017-08-04T18:35:12.145Z,56.5
2017-08-04T18:35:32.785Z,56.1
2017-08-04T18:35:53.437Z,56.3
2017-08-04T18:36:14.082Z,56.4
2017-08-04T18:36:34.718Z,56.5
2017-08-04T18:36:55.374Z,56.3
2017-08-04T18:37:17.144Z,56.6
2017-08-04T18:37:37.890Z,57.5
2017-08-04T18:37:58.541Z,57.6
2017-08-04T18:38:19.181Z,56.7
2017-08-04T18:38:39.832Z,56.8
2017-08-04T18:39:00.528Z,56.8
2017-08-04T18:39:21.381Z,58
2017-08-04T18:39:42.302Z,58.2
2017-08-04T18:40:02.978Z,57.2
2017-08-04T18:40:23.618Z,56.9
2017-08-04T18:40:44.291Z,57.5
2017-08-04T18:41:04.947Z,57.6
2017-08-04T18:41:25.609Z,57.5
2017-08-04T18:41:46.294Z,57.4
2017-08-04T18:42:07.234Z,58.1
2017-08-04T18:42:27.899Z,57.5
2017-08-04T18:42:48.670Z,58
2017-08-04T18:43:09.318Z,58
2017-08-04T18:43:30.044Z,58.4
2017-08-04T18:43:50.697Z,57.9
2017-08-04T18:44:11.349Z,58.3
2017-08-04T18:44:31.981Z,58
2017-08-04T18:44:52.619Z,58.3
2017-08-04T18:45:13.275Z,57.9
2017-08-04T18:45:33.929Z,58.6
2017-08-04T18:45:54.576Z,58.3
2017-08-04T18:46:15.227Z,59.4
2017-08-04T18:46:35.884Z,59.5
2017-08-04T18:46:56.539Z,58.6
2017-08-04T18:47:17.205Z,58.7
2017-08-04T18:47:37.860Z,58
2017-08-04T18:47:58.526Z,57.9
2017-08-04T18:48:19.176Z,57.6
2017-08-04T18:48:39.821Z,58.7
2017-08-04T18:49:00.464Z,58.7
2017-08-04T18:49:21.103Z,58.6
2017-08-04T18:49:41.794Z,59.4
2017-08-04T18:50:02.463Z,58.7
2017-08-04T18:50:23.113Z,58.6
2017-08-04T18:50:43.771Z,58.6
2017-08-04T18:51:05.633Z,58.7
2017-08-04T18:51:27.141Z,58.9
2017-08-04T18:51:49.863Z,59.5
2017-08-04T18:52:11.622Z,59.1
2017-08-04T18:52:32.716Z,58.9
2017-08-04T18:52:54.088Z,58.8
2017-08-04T18:53:15.302Z,57.9
2017-08-04T18:53:36.141Z,58.9
2017-08-04T18:53:57.761Z,58.6
2017-08-04T18:54:19.074Z,58.1
2017-08-04T18:54:40.394Z,58.8
2017-08-04T18:55:01.646Z,58.6
2017-08-04T18:55:23.283Z,57.8
2017-08-04T18:55:45.267Z,58
2017-08-04T18:56:07.322Z,58.9
2017-08-04T18:56:28.707Z,58.7
2017-08-04T18:56:49.826Z,59.1
2017-08-04T18:57:11.296Z,59.2
2017-08-04T18:57:32.435Z,59.1
2017-08-04T18:57:53.585Z,59.8
2017-08-04T18:58:15.604Z,58.9
2017-08-04T18:58:36.661Z,58.5
2017-08-04T18:58:58.502Z,59.8
2017-08-04T18:59:19.863Z,59.3
2017-08-04T18:59:41.037Z,59.8
2017-08-04T19:00:02.077Z,60.2
2017-08-04T19:00:23.038Z,59.8
2017-08-04T19:00:45.957Z,58.6
2017-08-04T19:01:07.223Z,59.1
2017-08-04T19:01:28.506Z,59.8
2017-08-04T19:01:49.335Z,60.1
2017-08-04T19:02:10.609Z,59.8
2017-08-04T19:02:31.975Z,60.4
2017-08-04T19:02:52.944Z,59.5
2017-08-04T19:03:15.683Z,59.6
2017-08-04T19:03:36.900Z,59.6
2017-08-04T19:03:58.052Z,60.2
2017-08-04T19:04:19.275Z,60.3
2017-08-04T19:04:40.799Z,59.9
2017-08-04T19:05:02.164Z,59
2017-08-04T19:05:23.621Z,58.8
2017-08-04T19:05:44.638Z,59.6
2017-08-04T19:06:05.859Z,59.5
2017-08-04T19:06:27.294Z,59.4
2017-08-04T19:06:49.826Z,58.8
2017-08-04T19:07:10.787Z,59.3
2017-08-04T19:07:32.066Z,59.2
2017-08-04T19:07:53.397Z,59.4
2017-08-04T19:08:14.750Z,59.7
2017-08-04T19:08:36.571Z,59.5
2017-08-04T19:08:57.826Z,59.5
2017-08-04T19:09:19.012Z,59.4
2017-08-04T19:09:40.283Z,58.7
2017-08-04T19:10:01.458Z,58.9
2017-08-04T19:10:24.408Z,58.6
2017-08-04T19:10:45.675Z,58.9
2017-08-04T19:11:06.765Z,58.8
2017-08-04T19:11:29.499Z,58.6
2017-08-04T19:11:54.177Z,59.3
2017-08-04T19:12:15.403Z,58.9
2017-08-04T19:12:39.468Z,58.6
2017-08-04T19:13:00.651Z,58.7
2017-08-04T19:13:22.077Z,57.9
2017-08-04T19:13:45.512Z,58.5
2017-08-04T19:14:07.328Z,59
2017-08-04T19:14:30.144Z,58.9
2017-08-04T19:14:52.501Z,58.8
2017-08-04T19:15:13.596Z,59.3
2017-08-04T19:15:39.028Z,58.1
2017-08-04T19:16:00.233Z,57.9
2017-08-04T19:16:22.517Z,58.3
2017-08-04T19:16:43.752Z,58.1
2017-08-04T19:17:06.932Z,58.7
2017-08-04T19:17:28.249Z,58.5
2017-08-04T19:17:49.078Z,59
2017-08-04T19:18:10.375Z,59.4
2017-08-04T19:18:31.568Z,59
2017-08-04T19:18:53.027Z,59.4
2017-08-04T19:19:14.215Z,59.5
2017-08-04T19:19:36.156Z,59.8
2017-08-04T19:19:57.140Z,59.4
2017-08-04T19:20:18.004Z,59.5
2017-08-04T19:20:38.844Z,59.4
2017-08-04T19:21:00.045Z,58.9
2017-08-04T19:21:21.356Z,58.9
2017-08-04T19:21:43.392Z,58.8
2017-08-04T19:22:04.584Z,58.7
2017-08-04T19:22:26.753Z,59.2
2017-08-04T19:22:48.706Z,58.9
2017-08-04T19:23:09.991Z,58.9
2017-08-04T19:23:31.246Z,60
2017-08-04T19:23:51.978Z,59.3
2017-08-04T19:24:13.443Z,59.9
2017-08-04T19:24:35.150Z,59.8
2017-08-04T19:24:56.440Z,60.2
2017-08-04T19:25:18.502Z,59.6
2017-08-04T19:25:39.724Z,59.6
2017-08-04T19:26:01.202Z,60.2
2017-08-04T19:26:22.523Z,59.9
2017-08-04T19:26:44.242Z,59.9
2017-08-04T19:27:05.421Z,60.1
2017-08-04T19:27:26.815Z,59.8
2017-08-04T19:27:47.920Z,60
2017-08-04T19:28:09.102Z,59.8
2017-08-04T19:28:30.385Z,60
2017-08-04T19:28:51.836Z,60
2017-08-04T19:29:12.912Z,60.5
2017-08-04T19:29:34.118Z,59.8
2017-08-04T19:29:55.494Z,59.5
2017-08-04T19:30:16.715Z,60.5
2017-08-04T19:30:38.074Z,60.3
2017-08-04T19:30:59.351Z,60.2
2017-08-04T19:31:20.755Z,60.1
2017-08-04T19:31:42.072Z,60.6
2017-08-04T19:32:03.143Z,60.9
2017-08-04T19:32:24.677Z,60.3
2017-08-04T19:32:45.813Z,60.4
2017-08-04T19:33:07.114Z,61
2017-08-04T19:33:28.986Z,60.3
2017-08-04T19:33:49.942Z,60.9
2017-08-04T19:34:11.307Z,60.4
2017-08-04T19:34:32.356Z,61.3
2017-08-04T19:34:53.984Z,61.3
2017-08-04T19:35:15.162Z,62
2017-08-04T19:35:36.376Z,60.8
2017-08-04T19:35:58.012Z,60.9
2017-08-04T19:36:19.024Z,60.3
2017-08-04T19:36:42.059Z,60.9
2017-08-04T19:37:04.675Z,61.4
2017-08-04T19:37:27.620Z,62
2017-08-04T19:37:49.730Z,63.1
2017-08-04T19:38:12.765Z,62.3
2017-08-04T19:38:33.995Z,62.2
2017-08-04T19:38:55.158Z,62.2
2017-08-04T19:39:16.323Z,62.2
2017-08-04T19:39:37.587Z,61.3
2017-08-04T19:39:58.832Z,62.1
2017-08-04T19:40:21.587Z,61.8
2017-08-04T19:40:42.857Z,61.2
2017-08-04T19:41:04.704Z,62.5
2017-08-04T19:41:25.912Z,62.3
2017-08-04T19:41:47.079Z,61.6
2017-08-04T19:42:08.330Z,62.3
2017-08-04T19:42:29.511Z,62.1
2017-08-04T19:42:50.876Z,62.2
2017-08-04T19:43:12.184Z,61.6
2017-08-04T19:43:33.355Z,61.3
2017-08-04T19:43:54.963Z,62
2017-08-04T19:44:16.936Z,61.9
2017-08-04T19:44:38.141Z,62.6
2017-08-04T19:44:58.788Z,62.4
2017-08-04T19:45:20.830Z,62.9
2017-08-04T19:45:42.092Z,61.9
2017-08-04T19:46:03.329Z,62
2017-08-04T19:46:26.117Z,63.5
2017-08-04T19:46:48.187Z,63
2017-08-04T19:47:09.961Z,62.1
2017-08-04T19:47:31.139Z,62.6
2017-08-04T19:47:52.442Z,62.6
2017-08-04T19:48:14.187Z,62.1
2017-08-04T19:48:36.551Z,62.5
2017-08-04T19:48:58.725Z,62.1
2017-08-04T19:49:20.007Z,62.3
2017-08-04T19:49:41.208Z,62.4
2017-08-04T19:50:02.330Z,62.3
2017-08-04T19:50:25.130Z,62.2
2017-08-04T19:50:46.233Z,61.9
2017-08-04T19:51:09.430Z,62
2017-08-04T19:51:30.540Z,60.4
2017-08-04T19:51:51.588Z,60.9
2017-08-04T19:52:12.809Z,60.8
2017-08-04T19:52:34.228Z,62.1
2017-08-04T19:52:55.285Z,61.7
2017-08-04T19:53:17.058Z,61.8
2017-08-04T19:53:38.143Z,61
2017-08-04T19:53:59.553Z,62.1
2017-08-04T19:54:20.615Z,62.3
2017-08-04T19:54:42.044Z,62.3
2017-08-04T19:55:04.209Z,62.2
2017-08-04T19:55:25.842Z,62.2
2017-08-04T19:55:46.731Z,62.2
2017-08-04T19:56:09.545Z,62.2
2017-08-04T19:56:30.752Z,62.1
2017-08-04T19:56:51.872Z,61.3
2017-08-04T19:57:12.974Z,61.3
2017-08-04T19:57:34.378Z,61.7
2017-08-04T19:57:55.749Z,61.4
2017-08-04T19:58:17.513Z,60.9
2017-08-04T19:58:39.248Z,60.7
2017-08-04T19:59:00.350Z,61.2
2017-08-04T19:59:21.965Z,61.4
2017-08-04T19:59:42.974Z,61.5
2017-08-04T20:00:04.910Z,62.5
2017-08-04T20:00:27.139Z,62.4
2017-08-04T20:00:48.585Z,62.1
2017-08-04T20:01:10.072Z,61.7
2017-08-04T20:01:30.891Z,61.3
2017-08-04T20:01:52.198Z,61.9
2017-08-04T20:02:15.686Z,60.9
2017-08-04T20:02:36.873Z,60.8
2017-08-04T20:02:57.949Z,60.8
2017-08-04T20:03:18.931Z,61.3
2017-08-04T20:03:40.774Z,61.8
2017-08-04T20:04:01.945Z,61.8
2017-08-04T20:04:22.861Z,61.3
2017-08-04T20:04:45.414Z,61.1
2017-08-04T20:05:06.525Z,61.1
2017-08-04T20:05:28.356Z,61.5
2017-08-04T20:05:49.632Z,61.2
2017-08-04T20:06:10.839Z,62.3
2017-08-04T20:06:32.219Z,61.9
2017-08-04T20:06:53.699Z,61.3
2017-08-04T20:07:14.576Z,60.9
2017-08-04T20:07:37.200Z,62.2
2017-08-04T20:07:58.840Z,62.2
2017-08-04T20:08:20.357Z,61.3
2017-08-04T20:08:41.444Z,61.9
2017-08-04T20:09:03.040Z,61.9
2017-08-04T20:09:24.186Z,62.2
2017-08-04T20:09:45.581Z,62.1
2017-08-04T20:10:06.604Z,61.2
2017-08-04T20:10:27.741Z,60.9
2017-08-04T20:10:49.016Z,61.3
2017-08-04T20:11:10.122Z,61
2017-08-04T20:11:32.179Z,61.3
2017-08-04T20:11:53.256Z,60.8
2017-08-04T20:12:14.425Z,61
2017-08-04T20:12:38.244Z,60.6
2017-08-04T20:12:59.316Z,61.1
2017-08-04T20:13:20.369Z,61
2017-08-04T20:13:41.586Z,60.9
2017-08-04T20:14:03.756Z,61.3
2017-08-04T20:14:24.941Z,61.8
2017-08-04T20:14:46.675Z,61.3
2017-08-04T20:15:07.782Z,61.9
2017-08-04T20:15:29.104Z,62
2017-08-04T20:15:50.965Z,61.4
2017-08-04T20:16:12.969Z,61
2017-08-04T20:16:34.754Z,61.1
2017-08-04T20:16:57.312Z,62.2
2017-08-04T20:17:19.266Z,62.8
2017-08-04T20:17:40.446Z,62.7
2017-08-04T20:18:02.442Z,62.1
2017-08-04T20:18:23.832Z,62.2
2017-08-04T20:18:45.233Z,62
2017-08-04T20:19:06.269Z,62
2017-08-04T20:19:27.443Z,61.9
2017-08-04T20:19:49.336Z,62.3
2017-08-04T20:20:10.998Z,62.3
2017-08-04T20:20:32.118Z,62.3
2017-08-04T20:20:53.291Z,61.8
2017-08-04T20:21:14.113Z,61.8
2017-08-04T20:21:35.668Z,61.7
2017-08-04T20:21:59.051Z,61.5
2017-08-04T20:22:20.917Z,61.1
2017-08-04T20:22:43.527Z,61.3
2017-08-04T20:23:04.753Z,61.1
2017-08-04T20:23:25.987Z,61.5
2017-08-04T20:23:48.516Z,61.8
2017-08-04T20:24:10.290Z,61.9
2017-08-04T20:24:31.557Z,62.1
2017-08-04T20:24:53.456Z,62.2
2017-08-04T20:25:14.881Z,61.9
2017-08-04T20:25:35.605Z,62.7
2017-08-04T20:25:57.077Z,62.1
2017-08-04T20:26:18.228Z,61.8
2017-08-04T20:26:39.571Z,61.9
2017-08-04T20:27:00.919Z,62.4
2017-08-04T20:27:22.328Z,62.1
2017-08-04T20:27:43.942Z,62.2
2017-08-04T20:28:05.379Z,61.9
2017-08-04T20:28:27.113Z,62.2
2017-08-04T20:28:48.367Z,62.1
2017-08-04T20:29:10.842Z,62.2
2017-08-04T20:29:32.285Z,62.2
2017-08-04T20:29:54.583Z,62.1
2017-08-04T20:30:15.888Z,62.2
2017-08-04T20:30:37.205Z,62.6
2017-08-04T20:30:59.498Z,62.5
2017-08-04T20:31:20.886Z,62.4
2017-08-04T20:31:42.080Z,62.2
2017-08-04T20:32:04.032Z,62.3
2017-08-04T20:32:25.226Z,62.2
2017-08-04T20:32:48.726Z,62.1
2017-08-04T20:33:09.994Z,62.8
2017-08-04T20:33:31.202Z,62.2
2017-08-04T20:33:52.472Z,61.7
2017-08-04T20:34:13.742Z,62.2
2017-08-04T20:34:35.046Z,62.1
2017-08-04T20:34:57.211Z,62.1
2017-08-04T20:35:18.477Z,62
2017-08-04T20:35:40.861Z,62.6
2017-08-04T20:36:02.900Z,62.6
2017-08-04T20:36:24.811Z,62.2
2017-08-04T20:36:46.718Z,62.2
2017-08-04T20:37:09.288Z,62.3
2017-08-04T20:37:30.177Z,62.3
2017-08-04T20:37:51.602Z,62.1
2017-08-04T20:38:12.692Z,62.2
2017-08-04T20:38:35.537Z,62.2
2017-08-04T20:38:56.882Z,62.5
2017-08-04T20:39:18.785Z,62.8
2017-08-04T20:39:39.887Z,62.6
2017-08-04T20:40:01.165Z,63.3
2017-08-04T20:40:22.518Z,63
2017-08-04T20:40:43.736Z,62.9
2017-08-04T20:41:05.110Z,62.7
2017-08-04T20:41:26.313Z,62.9
2017-08-04T20:41:48.347Z,63
2017-08-04T20:42:09.331Z,62.2
2017-08-04T20:42:30.537Z,63
2017-08-04T20:42:51.729Z,63.3
2017-08-04T20:43:13.026Z,62.2
2017-08-04T20:43:34.537Z,62.7
2017-08-04T20:43:55.722Z,62.1
2017-08-04T20:44:16.952Z,62.8
2017-08-04T20:44:38.380Z,62.5
2017-08-04T20:44:59.591Z,61.8
2017-08-04T20:45:21.314Z,62.1
2017-08-04T20:45:42.627Z,62.3
2017-08-04T20:46:04.852Z,62.5
2017-08-04T20:46:26.939Z,63.1
2017-08-04T20:46:48.009Z,62.2
2017-08-04T20:47:09.300Z,62.1
2017-08-04T20:47:31.142Z,62.5
2017-08-04T20:47:52.101Z,62.4
2017-08-04T20:48:14.214Z,62.2
2017-08-04T20:48:35.323Z,62.6
2017-08-04T20:48:57.105Z,62.7
2017-08-04T20:49:18.995Z,61.8
2017-08-04T20:49:39.973Z,62.8
2017-08-04T20:50:01.102Z,62.6
2017-08-04T20:50:22.875Z,62.2
2017-08-04T20:50:43.897Z,62.6
2017-08-04T20:51:04.840Z,62.6
2017-08-04T20:51:27.063Z,62.6
2017-08-04T20:51:48.146Z,62.5
2017-08-04T20:52:09.287Z,63.1
2017-08-04T20:52:31.358Z,62.6
2017-08-04T20:52:52.531Z,62.4
2017-08-04T20:53:13.658Z,62.5
2017-08-04T20:53:34.872Z,63.3
2017-08-04T20:53:56.180Z,63.5
2017-08-04T20:54:17.967Z,63.8
2017-08-04T20:54:39.009Z,64.1
2017-08-04T20:55:00.209Z,64.8
2017-08-04T20:55:22.599Z,64.7
2017-08-04T20:55:43.332Z,64.6
2017-08-04T20:56:04.501Z,64.6
2017-08-04T20:56:25.717Z,63.8
2017-08-04T20:56:47.043Z,63.7
2017-08-04T20:57:08.930Z,63.1
2017-08-04T20:57:30.906Z,63.1
2017-08-04T20:57:52.098Z,63.5
2017-08-04T20:58:13.970Z,63.3
2017-08-04T20:58:35.674Z,63.7
2017-08-04T20:58:57.691Z,63.8
2017-08-04T20:59:18.960Z,64.1
2017-08-04T20:59:39.916Z,64.5
2017-08-04T21:00:00.888Z,64.6
2017-08-04T21:00:22.052Z,64.1
2017-08-04T21:00:44.258Z,64.8
2017-08-04T21:01:05.734Z,64.1
2017-08-04T21:01:28.752Z,64.2
2017-08-04T21:01:50.452Z,65.3
2017-08-04T21:02:11.507Z,64.6
2017-08-04T21:02:33.329Z,65.1
2017-08-04T21:02:54.773Z,64.4
2017-08-04T21:03:16.056Z,65.7
2017-08-04T21:03:37.244Z,66
2017-08-04T21:03:59.389Z,66.4
2017-08-04T21:04:21.303Z,65.2
2017-08-04T21:04:42.600Z,65.7
2017-08-04T21:05:03.812Z,66.1
2017-08-04T21:05:25.559Z,65.9
2017-08-04T21:05:46.896Z,66.2
2017-08-04T21:06:08.669Z,67.1
2017-08-04T21:06:30.521Z,67.2
2017-08-04T21:06:51.729Z,66.9
2017-08-04T21:07:12.801Z,67.4
2017-08-04T21:07:34.595Z,67.3
2017-08-04T21:07:56.678Z,67
2017-08-04T21:08:18.766Z,67
2017-08-04T21:08:41.781Z,66.6
2017-08-04T21:09:04.081Z,66.7
2017-08-04T21:09:26.157Z,66.7
2017-08-04T21:09:47.662Z,66.9
2017-08-04T21:10:08.802Z,66.3
2017-08-04T21:10:30.833Z,66.7
2017-08-04T21:10:52.199Z,67
2017-08-04T21:11:14.146Z,66.3
2017-08-04T21:11:35.463Z,66.2
2017-08-04T21:11:56.877Z,66.3
2017-08-04T21:12:18.079Z,66.4
2017-08-04T21:12:39.828Z,66.6
2017-08-04T21:13:01.728Z,66.7
2017-08-04T21:13:22.968Z,66.6
2017-08-04T21:13:44.747Z,66.4
2017-08-04T21:14:06.115Z,66.9
2017-08-04T21:14:27.347Z,66.7
2017-08-04T21:14:49.272Z,66.9
2017-08-04T21:15:11.367Z,66
2017-08-04T21:15:33.161Z,65.9
2017-08-04T21:15:56.706Z,66.6
2017-08-04T21:16:18.808Z,66
2017-08-04T21:16:40.189Z,65.9
2017-08-04T21:17:02.203Z,65.9
2017-08-04T21:17:23.791Z,66.3
2017-08-04T21:17:44.869Z,66.3
2017-08-04T21:18:06.185Z,65.9
2017-08-04T21:18:28.276Z,66.3
2017-08-04T21:18:49.539Z,66.4
2017-08-04T21:19:11.889Z,66.7
2017-08-04T21:19:33.008Z,67.1
2017-08-04T21:19:54.142Z,67.1
2017-08-04T21:20:15.418Z,66.2
2017-08-04T21:20:36.935Z,66.7
2017-08-04T21:20:58.138Z,66.9
2017-08-04T21:21:19.307Z,67.3
2017-08-04T21:21:40.088Z,66.4
2017-08-04T21:22:00.851Z,66.9
2017-08-04T21:22:21.502Z,66.3
2017-08-04T21:22:42.144Z,65.6
2017-08-04T21:23:02.786Z,66.1
2017-08-04T21:23:23.453Z,66.7
2017-08-04T21:23:44.117Z,66.2
2017-08-04T21:24:04.757Z,65.8
2017-08-04T21:24:25.422Z,65.9
2017-08-04T21:24:46.070Z,65.8
2017-08-04T21:25:06.718Z,65.7
2017-08-04T21:25:27.364Z,66.2
2017-08-04T21:25:48.031Z,65.9
2017-08-04T21:26:08.696Z,66.1
2017-08-04T21:26:29.372Z,66.5
2017-08-04T21:26:50.012Z,66.3
2017-08-04T21:27:10.679Z,65.9
2017-08-04T21:27:32.156Z,65.9
2017-08-04T21:27:52.813Z,66
2017-08-04T21:28:13.464Z,66.6
2017-08-04T21:28:34.631Z,65.9
2017-08-04T21:28:56.632Z,65.9
2017-08-04T21:29:19.417Z,66.1
2017-08-04T21:29:42.772Z,66.5
2017-08-04T21:30:03.478Z,66.2
2017-08-04T21:30:25.299Z,66.9
2017-08-04T21:30:47.067Z,66.3
2017-08-04T21:31:10.498Z,66.2
2017-08-04T21:31:46.760Z,66.5
2017-08-04T21:32:08.953Z,66.5
2017-08-04T21:32:31.887Z,66.8
2017-08-04T21:32:53.769Z,66.2
2017-08-04T21:33:14.451Z,66.1
2017-08-04T21:33:35.763Z,66.6
2017-08-04T21:33:56.431Z,66.6
2017-08-04T21:34:17.095Z,66.9
2017-08-04T21:34:37.775Z,66.4
2017-08-04T21:34:58.410Z,67.7
2017-08-04T21:35:19.067Z,67.7
2017-08-04T21:35:39.710Z,67.8
2017-08-04T21:36:00.360Z,67.9
2017-08-04T21:36:21.040Z,67.7
2017-08-04T21:36:41.699Z,67
2017-08-04T21:37:02.358Z,67.2
2017-08-04T21:37:23.007Z,67.4
2017-08-04T21:37:43.840Z,66.9
2017-08-04T21:38:04.719Z,67.8
2017-08-04T21:38:25.393Z,67.4
2017-08-04T21:38:46.225Z,67.1
2017-08-04T21:39:06.892Z,67.1
2017-08-04T21:39:27.543Z,66.7
2017-08-04T21:39:48.431Z,66.9
2017-08-04T21:40:09.511Z,66.2
2017-08-04T21:40:30.018Z,66.7
2017-08-04T21:40:50.827Z,67
2017-08-04T21:41:11.496Z,67.1
2017-08-04T21:41:32.351Z,66.6
2017-08-04T21:41:53.055Z,66.2
2017-08-04T21:42:13.857Z,66.4
2017-08-04T21:42:34.747Z,66.3
2017-08-04T21:42:55.397Z,66.2
2017-08-04T21:43:16.049Z,66.9
2017-08-04T21:43:37.067Z,67.8
2017-08-04T21:43:59.926Z,67.2
2017-08-04T21:44:22.956Z,67.4
2017-08-04T21:44:44.026Z,66.9
2017-08-04T21:45:04.760Z,66.9
2017-08-04T21:45:25.545Z,66.8
2017-08-04T21:45:46.840Z,67.1
2017-08-04T21:46:07.559Z,67
2017-08-04T21:46:28.663Z,66.1
2017-08-04T21:46:49.312Z,66.8
2017-08-04T21:47:10.806Z,67.4
2017-08-04T21:47:31.453Z,67.9
2017-08-04T21:47:52.146Z,67.6
2017-08-04T21:48:13.290Z,67
2017-08-04T21:48:34.004Z,67.5
2017-08-04T21:48:55.163Z,67.1
2017-08-04T21:49:16.284Z,67.8
2017-08-04T21:49:37.182Z,67.5
2017-08-04T21:49:57.901Z,68.5
2017-08-04T21:50:18.660Z,68.4
2017-08-04T21:50:39.527Z,68.5
2017-08-04T21:51:00.221Z,66.9
2017-08-04T21:51:20.878Z,67.5
2017-08-04T21:51:41.531Z,67.8
2017-08-04T21:52:02.200Z,67.7
2017-08-04T21:52:22.885Z,68.7
2017-08-04T21:52:43.380Z,67.7
2017-08-04T21:53:04.142Z,67.8
2017-08-04T21:53:24.813Z,67.7
2017-08-04T21:53:45.454Z,68
2017-08-04T21:54:06.135Z,68
2017-08-04T21:54:26.802Z,67
2017-08-04T21:54:47.758Z,67
2017-08-04T21:55:08.724Z,67.8
2017-08-04T21:55:29.614Z,68.1
2017-08-04T21:55:50.691Z,67.3
2017-08-04T21:56:11.378Z,68.2
2017-08-04T21:56:32.129Z,68.3
2017-08-04T21:56:52.991Z,68.5
2017-08-04T21:57:13.845Z,67
2017-08-04T21:57:34.565Z,67.1
2017-08-04T21:57:55.309Z,67.2
2017-08-04T21:58:16.096Z,66.9
2017-08-04T21:58:36.928Z,66.4
2017-08-04T21:58:57.747Z,67.1
2017-08-04T21:59:18.411Z,66.6
2017-08-04T21:59:39.327Z,66.9
2017-08-04T22:00:00.062Z,66.9
2017-08-04T22:00:20.909Z,66.9
2017-08-04T22:00:41.673Z,65.9
2017-08-04T22:01:02.474Z,66.3
2017-08-04T22:01:23.122Z,66
2017-08-04T22:01:43.778Z,66.1
2017-08-04T22:02:04.408Z,67.1
2017-08-04T22:02:25.102Z,66.9
2017-08-04T22:02:45.757Z,66.5
2017-08-04T22:03:06.449Z,66.8
2017-08-04T22:03:27.113Z,67.1
2017-08-04T22:03:47.779Z,66.1
2017-08-04T22:04:08.460Z,66.9
2017-08-04T22:04:29.886Z,67
2017-08-04T22:04:50.904Z,67
2017-08-04T22:05:11.637Z,66.9
2017-08-04T22:05:33.182Z,67.6
2017-08-04T22:05:54.549Z,66.7
2017-08-04T22:06:15.595Z,67.6
2017-08-04T22:06:36.249Z,67.6
2017-08-04T22:06:56.894Z,67.6
2017-08-04T22:07:17.531Z,67.6
2017-08-04T22:07:38.166Z,67.7
2017-08-04T22:07:59.216Z,67.9
2017-08-04T22:08:20.562Z,68.4
2017-08-04T22:08:41.420Z,68.4
2017-08-04T22:09:02.132Z,67.9
2017-08-04T22:09:22.801Z,67.7
2017-08-04T22:09:43.613Z,66.6
2017-08-04T22:10:04.953Z,66.8
2017-08-04T22:10:26.244Z,67.7
2017-08-04T22:10:47.032Z,66.9
2017-08-04T22:11:07.671Z,67
2017-08-04T22:11:28.334Z,67.1
2017-08-04T22:11:48.982Z,66.9
2017-08-04T22:12:09.844Z,66.1
2017-08-04T22:12:31.223Z,67
2017-08-04T22:12:52.703Z,66.4
2017-08-04T22:13:13.867Z,65.9
2017-08-04T22:13:34.946Z,66.5
2017-08-04T22:13:55.681Z,66.7
2017-08-04T22:14:16.356Z,66.2
2017-08-04T22:14:36.988Z,66.9
2017-08-04T22:14:57.626Z,66.7
2017-08-04T22:15:18.272Z,67.7
2017-08-04T22:15:39.036Z,67.5
2017-08-04T22:15:59.688Z,67
2017-08-04T22:16:20.977Z,66.9
2017-08-04T22:16:42.222Z,67.1
2017-08-04T22:17:02.975Z,67.4
2017-08-04T22:17:24.284Z,67.6
2017-08-04T22:17:45.509Z,67.9
2017-08-04T22:18:06.381Z,66.6
2017-08-04T22:18:27.759Z,66.9
2017-08-04T22:18:48.406Z,66.9
2017-08-04T22:19:09.063Z,67.6
2017-08-04T22:19:29.709Z,67.6
2017-08-04T22:19:50.360Z,67.6
2017-08-04T22:20:11.009Z,67.5
2017-08-04T22:20:31.676Z,67.3
2017-08-04T22:20:52.315Z,67.1
2017-08-04T22:21:12.964Z,67.3
2017-08-04T22:21:33.604Z,66.9
2017-08-04T22:21:54.247Z,67.7
2017-08-04T22:22:14.903Z,67.7
2017-08-04T22:22:35.544Z,66.6
2017-08-04T22:22:56.194Z,67.3
2017-08-04T22:23:16.849Z,67.3
2017-08-04T22:23:37.508Z,67.6
2017-08-04T22:23:58.159Z,67.2
2017-08-04T22:24:18.805Z,67.1
2017-08-04T22:24:39.465Z,67.6
2017-08-04T22:25:00.093Z,67.5
2017-08-04T22:25:20.749Z,67.6
2017-08-04T22:25:41.392Z,67.6
2017-08-04T22:26:02.045Z,67.7
2017-08-04T22:26:22.700Z,67.6
2017-08-04T22:26:43.367Z,67.7
2017-08-04T22:27:04.029Z,67.6
2017-08-04T22:27:24.672Z,67.7
2017-08-04T22:27:45.321Z,67.6
2017-08-04T22:28:05.984Z,67.5
2017-08-04T22:28:26.634Z,68.5
2017-08-04T22:28:47.279Z,68.7
2017-08-04T22:29:07.920Z,69.2
2017-08-04T22:29:28.561Z,69.5
2017-08-04T22:29:49.208Z,69.3
2017-08-04T22:30:09.855Z,69.3
2017-08-04T22:30:30.516Z,69.2
2017-08-04T22:30:51.172Z,69.8
2017-08-04T22:31:11.809Z,69.7
2017-08-04T22:31:32.466Z,69.4
2017-08-04T22:31:53.105Z,69.3
2017-08-04T22:32:13.753Z,70.4
2017-08-04T22:32:34.424Z,70.9
2017-08-04T22:32:55.070Z,70.2
2017-08-04T22:33:15.710Z,69.9
2017-08-04T22:33:36.363Z,69.6
2017-08-04T22:33:57.015Z,69.8
2017-08-04T22:34:17.664Z,69.7
2017-08-04T22:34:38.305Z,69.6
2017-08-04T22:34:58.961Z,69.2
2017-08-04T22:35:19.612Z,69
2017-08-04T22:35:40.267Z,69.3
2017-08-04T22:36:00.906Z,69.8
2017-08-04T22:36:21.550Z,69.4
2017-08-04T22:36:42.210Z,68.9
2017-08-04T22:37:02.861Z,69.2
2017-08-04T22:37:23.500Z,69.3
2017-08-04T22:37:44.170Z,69.3
2017-08-04T22:38:04.811Z,69.1
2017-08-04T22:38:25.431Z,69.3
2017-08-04T22:38:46.072Z,69.3
2017-08-04T22:39:06.725Z,69.7
2017-08-04T22:39:27.363Z,70
2017-08-04T22:39:48.013Z,69.7
2017-08-04T22:40:08.648Z,70.2
2017-08-04T22:40:29.303Z,70.3
2017-08-04T22:40:49.942Z,70.6
2017-08-04T22:41:10.584Z,71.4
2017-08-04T22:41:31.228Z,71
2017-08-04T22:41:51.857Z,70.6
2017-08-04T22:42:12.496Z,71
2017-08-04T22:42:33.142Z,70.5
2017-08-04T22:42:53.801Z,70.7
2017-08-04T22:43:14.441Z,71.1
2017-08-04T22:43:35.115Z,71.8
2017-08-04T22:43:55.769Z,72.4
2017-08-04T22:44:16.410Z,71.7
2017-08-04T22:44:37.044Z,72.2
2017-08-04T22:44:57.693Z,71.9
2017-08-04T22:45:18.344Z,72.4
2017-08-04T22:45:38.982Z,72.7
2017-08-04T22:45:59.622Z,72.2
2017-08-04T22:46:20.260Z,72.1
2017-08-04T22:46:40.927Z,72.1
2017-08-04T22:47:01.565Z,72.2
2017-08-04T22:47:22.223Z,73.2
2017-08-04T22:47:42.870Z,73.2
2017-08-04T22:48:03.513Z,73.3
2017-08-04T22:48:24.157Z,72.7
2017-08-04T22:48:44.808Z,73
2017-08-04T22:49:05.468Z,73.4
2017-08-04T22:49:26.114Z,73.5
2017-08-04T22:49:46.766Z,73.4
2017-08-04T22:50:07.412Z,72.8
2017-08-04T22:50:28.069Z,72.8
2017-08-04T22:50:48.723Z,73.3
2017-08-04T22:51:09.366Z,73.1
2017-08-04T22:51:29.989Z,73.4
2017-08-04T22:51:50.628Z,73.8
2017-08-04T22:52:11.273Z,73.9
2017-08-04T22:52:31.932Z,73.8
2017-08-04T22:52:52.580Z,73.2
2017-08-04T22:53:13.220Z,73.2
2017-08-04T22:53:33.864Z,73.6
2017-08-04T22:53:54.511Z,73.8
2017-08-04T22:54:15.139Z,73.7
2017-08-04T22:54:35.780Z,73.6
2017-08-04T22:54:56.428Z,73.5
2017-08-04T22:55:17.104Z,73.5
2017-08-04T22:55:37.756Z,73.3
2017-08-04T22:55:58.409Z,73.2
2017-08-04T22:56:19.090Z,73.5
2017-08-04T22:56:39.737Z,73.6
2017-08-04T22:57:00.371Z,73
2017-08-04T22:57:21.015Z,73.6
2017-08-04T22:57:41.642Z,74
2017-08-04T22:58:02.296Z,73.6
2017-08-04T22:58:22.947Z,73.4
2017-08-04T22:58:43.606Z,73.6
2017-08-04T22:59:04.253Z,73.5
2017-08-04T22:59:24.903Z,74.2